Time;durP1;ratioP1;P1;durP2;ratioP2;P2;SDS_P1;SDS_P2;PMS_P1;PMS_P2;Temp;Humidity;BMP_temperature;BMP_pressure;BME280_temperature;BME280_humidity;BME280_pressure;Samples;Min_cycle;Max_cycle;Signal;HPM_P1;HPM_P2
2022/03/24 00:00:39;;;;;;;88.30;56.00;;;;;;;;;;5051864;28;20048;-65
2022/03/24 00:03:46;;;;;;;85.78;53.67;;;;;;;;;;5051796;28;20048;-65
2022/03/24 00:06:50;;;;;;;88.80;53.72;;;;;;;;;;5051782;28;20523;-65
2022/03/24 00:09:55;;;;;;;95.15;57.00;;;;;;;;;;5051840;28;20389;-65
2022/03/24 00:12:59;;;;;;;93.18;55.22;;;;;;;;;;5051494;28;20048;-65
2022/03/24 00:16:04;;;;;;;91.88;53.40;;;;;;;;;;5051932;28;20063;-66
2022/03/24 00:19:08;;;;;;;81.18;52.92;;;;;;;;;;5051687;28;20528;-65
2022/03/24 00:22:13;;;;;;;86.30;54.17;;;;;;;;;;5051567;28;20044;-65
2022/03/24 00:25:17;;;;;;;85.65;53.70;;;;;;;;;;5050497;28;20500;-65
2022/03/24 00:28:22;;;;;;;91.18;55.42;;;;;;;;;;5051349;28;20052;-65
2022/03/24 00:31:26;;;;;;;91.03;53.17;;;;;;;;;;5051317;28;20044;-65
2022/03/24 00:34:31;;;;;;;91.75;53.50;;;;;;;;;;5050899;28;20067;-65
2022/03/24 00:37:35;;;;;;;94.22;52.00;;;;;;;;;;5051420;28;20507;-65
2022/03/24 00:40:39;;;;;;;87.05;50.75;;;;;;;;;;5051322;28;20413;-65
2022/03/24 00:43:44;;;;;;;84.63;51.72;;;;;;;;;;5051202;28;20044;-65
2022/03/24 00:46:50;;;;;;;86.13;49.63;;;;;;;;;;5050928;28;20052;-65
2022/03/24 00:49:54;;;;;;;85.60;50.38;;;;;;;;;;5050266;28;20043;-65
2022/03/24 00:52:59;;;;;;;78.63;47.28;;;;;;;;;;5051195;28;20048;-65
2022/03/24 00:56:05;;;;;;;84.78;47.42;;;;;;;;;;5049847;28;20056;-66
2022/03/24 00:59:09;;;;;;;90.75;49.17;;;;;;;;;;5050220;28;20404;-66
2022/03/24 01:02:14;;;;;;;83.93;48.53;;;;;;;;;;5051053;28;20048;-66
2022/03/24 01:05:19;;;;;;;81.25;47.50;;;;;;;;;;5049985;28;20039;-65
2022/03/24 01:08:24;;;;;;;81.85;48.13;;;;;;;;;;5050039;28;20377;-66
2022/03/24 01:11:29;;;;;;;79.30;45.15;;;;;;;;;;5050583;28;20064;-66
2022/03/24 01:14:35;;;;;;;71.88;44.78;;;;;;;;;;5050431;28;20056;-66
2022/03/24 01:17:39;;;;;;;78.53;45.25;;;;;;;;;;5050846;28;20599;-66
2022/03/24 01:20:45;;;;;;;78.30;42.75;;;;;;;;;;5050920;28;20052;-66
2022/03/24 01:23:49;;;;;;;65.82;41.85;;;;;;;;;;5050444;28;20048;-65
2022/03/24 01:26:53;;;;;;;69.25;42.75;;;;;;;;;;5049946;28;20048;-66
2022/03/24 01:29:59;;;;;;;77.53;44.17;;;;;;;;;;5049926;28;20035;-65
2022/03/24 01:33:03;;;;;;;72.20;43.15;;;;;;;;;;5049461;28;20039;-66
2022/03/24 01:36:08;;;;;;;72.38;41.60;;;;;;;;;;5049986;28;20052;-66
2022/03/24 01:39:13;;;;;;;76.43;40.35;;;;;;;;;;5050523;28;20044;-66
2022/03/24 01:42:18;;;;;;;72.15;40.45;;;;;;;;;;5050648;28;20040;-66
2022/03/24 01:45:22;;;;;;;68.30;39.92;;;;;;;;;;5050546;28;20055;-66
2022/03/24 01:48:27;;;;;;;57.90;36.97;;;;;;;;;;5050282;28;20048;-66
2022/03/24 01:51:31;;;;;;;54.70;34.42;;;;;;;;;;5049634;28;20512;-66
2022/03/24 01:54:36;;;;;;;55.80;34.13;;;;;;;;;;5050176;28;20060;-66
2022/03/24 01:57:41;;;;;;;58.35;33.30;;;;;;;;;;5049351;28;20095;-65
2022/03/24 02:00:45;;;;;;;51.05;30.80;;;;;;;;;;5049501;28;20139;-65
2022/03/24 02:03:51;;;;;;;48.22;29.08;;;;;;;;;;5049276;28;20039;-65
2022/03/24 02:06:55;;;;;;;44.03;26.55;;;;;;;;;;5049652;28;20044;-65
2022/03/24 02:10:01;;;;;;;56.72;31.10;;;;;;;;;;5049543;28;20059;-65
2022/03/24 02:13:06;;;;;;;47.08;27.48;;;;;;;;;;5049546;28;20056;-65
2022/03/24 02:16:11;;;;;;;50.80;27.90;;;;;;;;;;5038846;28;20240;-65
2022/03/24 02:19:16;;;;;;;47.17;25.75;;;;;;;;;;5053101;28;20044;-65
2022/03/24 02:22:21;;;;;;;45.67;25.95;;;;;;;;;;5052993;28;20563;-65
2022/03/24 02:25:31;;;;;;;42.10;26.15;;;;;;;;;;5053973;28;20048;-65
2022/03/24 02:28:36;;;;;;;42.55;25.58;;;;;;;;;;5053776;28;20052;-65
2022/03/24 02:31:43;;;;;;;46.78;27.17;;;;;;;;;;5054096;28;20060;-65
2022/03/24 02:34:48;;;;;;;49.40;28.35;;;;;;;;;;5053662;28;20056;-65
2022/03/24 02:37:53;;;;;;;40.30;27.00;;;;;;;;;;5052879;28;20055;-65
2022/03/24 02:40:57;;;;;;;42.38;25.13;;;;;;;;;;5053690;28;20132;-65
2022/03/24 02:44:04;;;;;;;44.42;26.55;;;;;;;;;;5053218;28;20047;-65
2022/03/24 02:47:10;;;;;;;50.55;24.85;;;;;;;;;;5053734;28;20040;-65
2022/03/24 02:50:14;;;;;;;39.47;24.45;;;;;;;;;;5053647;28;20046;-65
2022/03/24 02:53:19;;;;;;;37.75;24.55;;;;;;;;;;5053544;28;20384;-65
2022/03/24 02:56:23;;;;;;;41.97;24.27;;;;;;;;;;5053833;28;20491;-65
2022/03/24 02:59:27;;;;;;;40.08;24.27;;;;;;;;;;5053445;28;20499;-65
2022/03/24 03:02:32;;;;;;;44.92;27.08;;;;;;;;;;5052980;28;20044;-65
2022/03/24 03:05:36;;;;;;;38.90;23.85;;;;;;;;;;5053223;28;20048;-65
2022/03/24 03:08:40;;;;;;;42.92;23.95;;;;;;;;;;5053172;28;20039;-65
2022/03/24 03:11:45;;;;;;;42.08;24.52;;;;;;;;;;5053149;28;20476;-65
2022/03/24 03:14:49;;;;;;;43.28;26.40;;;;;;;;;;5052589;28;20068;-66
2022/03/24 03:17:53;;;;;;;48.13;28.25;;;;;;;;;;5052683;28;20040;-66
2022/03/24 03:20:58;;;;;;;43.25;27.17;;;;;;;;;;5052725;28;20063;-66
2022/03/24 03:24:03;;;;;;;51.92;27.77;;;;;;;;;;5052589;28;20040;-65
2022/03/24 03:27:08;;;;;;;46.60;26.60;;;;;;;;;;5052670;28;20059;-66
2022/03/24 03:30:13;;;;;;;51.33;29.00;;;;;;;;;;5052806;28;20048;-66
2022/03/24 03:33:17;;;;;;;45.13;25.63;;;;;;;;;;5051753;28;20043;-65
2022/03/24 03:36:21;;;;;;;50.17;25.63;;;;;;;;;;5052388;28;20048;-66
2022/03/24 03:39:26;;;;;;;42.45;26.23;;;;;;;;;;5051745;28;20039;-67
2022/03/24 03:42:31;;;;;;;47.78;27.48;;;;;;;;;;5052348;28;20456;-66
2022/03/24 03:45:36;;;;;;;48.60;26.02;;;;;;;;;;5052251;28;20036;-66
2022/03/24 03:48:40;;;;;;;49.75;26.70;;;;;;;;;;5052277;28;20044;-66
2022/03/24 03:51:45;;;;;;;51.30;27.98;;;;;;;;;;5052423;28;20063;-65
2022/03/24 03:54:49;;;;;;;48.55;29.67;;;;;;;;;;5052158;28;20059;-65
2022/03/24 03:57:53;;;;;;;49.55;30.00;;;;;;;;;;5051353;28;20044;-66
2022/03/24 04:00:57;;;;;;;50.30;28.52;;;;;;;;;;5051874;28;20048;-66
2022/03/24 04:04:02;;;;;;;43.55;28.65;;;;;;;;;;5051672;28;20048;-66
2022/03/24 04:07:06;;;;;;;53.80;30.38;;;;;;;;;;5051901;28;20044;-65
2022/03/24 04:10:11;;;;;;;50.05;28.60;;;;;;;;;;5051644;28;20068;-65
2022/03/24 04:13:16;;;;;;;47.45;28.42;;;;;;;;;;5050651;28;20051;-67
2022/03/24 04:16:20;;;;;;;50.65;27.75;;;;;;;;;;5051480;28;20052;-66
2022/03/24 04:19:25;;;;;;;49.15;26.45;;;;;;;;;;5051899;28;20064;-66
2022/03/24 04:22:30;;;;;;;48.55;27.80;;;;;;;;;;5051847;28;20073;-65
2022/03/24 04:25:34;;;;;;;55.53;28.45;;;;;;;;;;5051825;28;20388;-65
2022/03/24 04:28:39;;;;;;;50.00;27.58;;;;;;;;;;5051446;28;20040;-65
2022/03/24 04:31:44;;;;;;;45.67;27.02;;;;;;;;;;5050593;28;20047;-65
2022/03/24 04:34:48;;;;;;;49.03;28.17;;;;;;;;;;5051450;28;20072;-65
2022/03/24 04:37:52;;;;;;;48.83;28.83;;;;;;;;;;5050489;28;20047;-66
2022/03/24 04:40:56;;;;;;;43.15;27.35;;;;;;;;;;5051250;28;20040;-67
2022/03/24 04:44:01;;;;;;;46.70;28.50;;;;;;;;;;5051057;28;20120;-67
2022/03/24 04:47:05;;;;;;;46.88;27.75;;;;;;;;;;5051077;28;20044;-66
2022/03/24 04:50:10;;;;;;;48.55;27.80;;;;;;;;;;5050972;28;20040;-65
2022/03/24 04:53:15;;;;;;;45.38;27.48;;;;;;;;;;5051085;28;20048;-66
2022/03/24 04:56:20;;;;;;;43.15;27.52;;;;;;;;;;5050884;28;20059;-65
2022/03/24 04:59:24;;;;;;;47.58;26.98;;;;;;;;;;5050961;28;20047;-65
2022/03/24 05:02:28;;;;;;;45.75;29.27;;;;;;;;;;5051008;28;20519;-65
2022/03/24 05:05:33;;;;;;;44.35;27.95;;;;;;;;;;5051242;28;20628;-66
2022/03/24 05:08:37;;;;;;;48.03;27.08;;;;;;;;;;5050294;28;20051;-66
2022/03/24 05:11:41;;;;;;;50.63;29.45;;;;;;;;;;5050868;28;20484;-66
2022/03/24 05:14:46;;;;;;;43.65;26.77;;;;;;;;;;5050648;28;20051;-66
2022/03/24 05:17:51;;;;;;;42.60;26.80;;;;;;;;;;5050769;28;20118;-67
2022/03/24 05:20:55;;;;;;;56.90;27.42;;;;;;;;;;5050906;28;20051;-66
2022/03/24 05:24:00;;;;;;;49.30;27.40;;;;;;;;;;5050875;28;20048;-65
2022/03/24 05:27:05;;;;;;;52.40;27.35;;;;;;;;;;5050896;28;20048;-65
2022/03/24 05:30:10;;;;;;;61.72;28.20;;;;;;;;;;5050565;28;20383;-65
2022/03/24 05:33:15;;;;;;;62.97;25.88;;;;;;;;;;5049747;28;20043;-64
2022/03/24 05:36:19;;;;;;;66.05;27.48;;;;;;;;;;5050575;28;20056;-67
2022/03/24 05:39:24;;;;;;;59.83;26.63;;;;;;;;;;5050482;28;20052;-64
2022/03/24 05:42:28;;;;;;;45.60;27.17;;;;;;;;;;5050497;28;20044;-65
2022/03/24 05:45:33;;;;;;;43.05;26.77;;;;;;;;;;5050586;28;20055;-65
2022/03/24 05:48:37;;;;;;;56.70;27.50;;;;;;;;;;5050531;28;20393;-65
2022/03/24 05:52:04;;;;;;;53.55;30.13;;;;;;;;;;5052151;28;20048;-68
2022/03/24 05:55:09;;;;;;;58.97;28.05;;;;;;;;;;5054075;28;20048;-67
2022/03/24 05:58:13;;;;;;;40.60;24.98;;;;;;;;;;5054163;28;20044;-65
2022/03/24 06:01:18;;;;;;;44.47;25.95;;;;;;;;;;5054220;28;20401;-65
2022/03/24 06:04:23;;;;;;;46.53;26.27;;;;;;;;;;5053964;28;20540;-67
2022/03/24 06:07:29;;;;;;;39.97;24.77;;;;;;;;;;5054131;28;20044;-65
2022/03/24 06:10:33;;;;;;;68.45;27.92;;;;;;;;;;5054082;28;20040;-67
2022/03/24 06:13:37;;;;;;;55.40;26.25;;;;;;;;;;5054158;28;20040;-66
2022/03/24 06:16:41;;;;;;;39.60;23.52;;;;;;;;;;5053830;28;20063;-65
2022/03/24 06:19:47;;;;;;;45.83;24.27;;;;;;;;;;5053035;28;20044;-64
2022/03/24 06:22:53;;;;;;;46.28;23.75;;;;;;;;;;5053582;28;20048;-67
2022/03/24 06:25:57;;;;;;;40.65;24.23;;;;;;;;;;5053401;28;20040;-64
2022/03/24 06:29:01;;;;;;;52.28;25.08;;;;;;;;;;5053416;28;20063;-67
2022/03/24 06:32:06;;;;;;;52.95;26.25;;;;;;;;;;5053725;28;20044;-65
2022/03/24 06:35:11;;;;;;;50.90;26.45;;;;;;;;;;5052557;28;20056;-66
2022/03/24 06:38:17;;;;;;;47.95;26.10;;;;;;;;;;5053582;28;20044;-67
2022/03/24 06:41:22;;;;;;;44.15;26.88;;;;;;;;;;5053326;28;20052;-66
2022/03/24 06:44:29;;;;;;;42.75;26.45;;;;;;;;;;5053359;28;20055;-66
2022/03/24 06:47:34;;;;;;;45.53;25.27;;;;;;;;;;5053336;28;20040;-67
2022/03/24 06:50:38;;;;;;;39.78;24.35;;;;;;;;;;5052244;28;20036;-66
2022/03/24 06:53:43;;;;;;;46.17;22.55;;;;;;;;;;5053164;28;20040;-67
2022/03/24 06:56:49;;;;;;;45.95;22.50;;;;;;;;;;5052132;28;20052;-67
2022/03/24 06:59:53;;;;;;;34.17;19.27;;;;;;;;;;5053113;28;20052;-67
2022/03/24 07:02:58;;;;;;;45.65;21.05;;;;;;;;;;5052446;28;20052;-66
2022/03/24 07:06:03;;;;;;;28.73;18.17;;;;;;;;;;5052727;28;20428;-66
2022/03/24 07:09:07;;;;;;;36.70;19.90;;;;;;;;;;5052902;28;20044;-67
2022/03/24 07:12:11;;;;;;;40.95;19.45;;;;;;;;;;5052823;28;20123;-67
2022/03/24 07:15:16;;;;;;;37.00;18.88;;;;;;;;;;5052433;28;20433;-67
2022/03/24 07:18:20;;;;;;;33.58;19.27;;;;;;;;;;5052842;28;20048;-68
2022/03/24 07:21:24;;;;;;;35.75;18.42;;;;;;;;;;5052174;28;20047;-69
2022/03/24 07:24:29;;;;;;;30.95;18.88;;;;;;;;;;5052489;28;20052;-69
2022/03/24 07:27:34;;;;;;;40.78;18.67;;;;;;;;;;5052420;28;20507;-67
2022/03/24 07:30:39;;;;;;;32.78;18.98;;;;;;;;;;5052374;28;20055;-67
2022/03/24 07:33:44;;;;;;;33.55;18.77;;;;;;;;;;5052062;28;20393;-68
2022/03/24 07:36:48;;;;;;;36.92;20.50;;;;;;;;;;5040015;28;20060;-67
2022/03/24 07:39:52;;;;;;;34.00;18.45;;;;;;;;;;5052271;28;20048;-68
2022/03/24 07:42:57;;;;;;;32.22;20.08;;;;;;;;;;5052115;28;20052;-66
2022/03/24 07:46:02;;;;;;;38.72;20.15;;;;;;;;;;5052251;28;20047;-68
2022/03/24 07:49:06;;;;;;;38.55;19.85;;;;;;;;;;5052178;28;20043;-69
2022/03/24 07:52:12;;;;;;;48.45;20.90;;;;;;;;;;5052211;28;20040;-69
2022/03/24 07:55:18;;;;;;;42.08;20.90;;;;;;;;;;5052124;28;20064;-67
2022/03/24 07:58:23;;;;;;;41.83;22.67;;;;;;;;;;5051989;28;20397;-68
2022/03/24 08:01:28;;;;;;;31.00;19.85;;;;;;;;;;5051867;28;20052;-68
2022/03/24 08:04:32;;;;;;;31.05;21.10;;;;;;;;;;5051313;28;20059;-68
2022/03/24 08:07:36;;;;;;;33.63;20.77;;;;;;;;;;5051609;28;20044;-68
2022/03/24 08:10:42;;;;;;;39.78;20.50;;;;;;;;;;5051906;28;20496;-68
2022/03/24 08:13:50;;;;;;;35.08;19.65;;;;;;;;;;5050869;28;20056;-69
2022/03/24 08:16:54;;;;;;;33.45;20.17;;;;;;;;;;5051394;28;20052;-70
2022/03/24 08:19:58;;;;;;;28.52;19.15;;;;;;;;;;5051392;28;20044;-68
2022/03/24 08:23:03;;;;;;;27.00;19.33;;;;;;;;;;5051272;28;20527;-70
2022/03/24 08:26:07;;;;;;;29.15;19.70;;;;;;;;;;5051684;28;20051;-68
2022/03/24 08:29:12;;;;;;;31.27;20.98;;;;;;;;;;5051256;28;20052;-67
2022/03/24 08:32:16;;;;;;;31.25;19.30;;;;;;;;;;5051277;28;20044;-68
2022/03/24 08:35:21;;;;;;;33.30;18.90;;;;;;;;;;5050773;28;20071;-70
2022/03/24 08:38:25;;;;;;;27.92;18.58;;;;;;;;;;5050017;28;20048;-68
2022/03/24 08:41:31;;;;;;;40.92;20.77;;;;;;;;;;5051269;28;20052;-69
2022/03/24 08:44:35;;;;;;;34.25;20.42;;;;;;;;;;5051013;28;20531;-68
2022/03/24 08:47:40;;;;;;;31.08;20.25;;;;;;;;;;5050987;28;20056;-68
2022/03/24 08:50:44;;;;;;;40.25;21.17;;;;;;;;;;5051639;28;20043;-69
2022/03/24 08:53:48;;;;;;;30.13;20.75;;;;;;;;;;5051004;28;20043;-69
2022/03/24 08:56:53;;;;;;;32.85;22.17;;;;;;;;;;5051126;28;20507;-70
2022/03/24 09:00:02;;;;;;;36.85;21.60;;;;;;;;;;5050092;28;20040;-68
2022/03/24 09:03:06;;;;;;;32.58;21.45;;;;;;;;;;5050455;28;20072;-66
2022/03/24 09:06:11;;;;;;;38.58;22.17;;;;;;;;;;5050811;28;20044;-67
2022/03/24 09:09:15;;;;;;;32.75;21.23;;;;;;;;;;5051022;28;20040;-69
2022/03/24 09:12:20;;;;;;;27.83;20.25;;;;;;;;;;5050509;28;20052;-69
2022/03/24 09:15:24;;;;;;;27.77;20.92;;;;;;;;;;5050454;28;20425;-68
2022/03/24 09:18:29;;;;;;;29.38;20.55;;;;;;;;;;5050620;28;20036;-68
2022/03/24 09:21:33;;;;;;;28.55;19.25;;;;;;;;;;5050852;28;20051;-69
2022/03/24 09:24:38;;;;;;;31.35;19.70;;;;;;;;;;5038296;28;20464;-70
2022/03/24 09:27:42;;;;;;;28.08;19.20;;;;;;;;;;5054097;28;20435;-68
2022/03/24 09:30:47;;;;;;;27.45;19.30;;;;;;;;;;5054223;28;20404;-69
2022/03/24 09:33:51;;;;;;;29.00;19.00;;;;;;;;;;5054240;28;20040;-69
2022/03/24 09:36:55;;;;;;;28.42;19.30;;;;;;;;;;5054684;28;20056;-70
2022/03/24 09:40:01;;;;;;;28.38;17.50;;;;;;;;;;5054477;28;20318;-70
2022/03/24 09:43:05;;;;;;;30.50;17.88;;;;;;;;;;5053418;28;20040;-67
2022/03/24 09:46:09;;;;;;;22.83;15.13;;;;;;;;;;5054815;28;20052;-69
2022/03/24 09:49:14;;;;;;;22.40;15.55;;;;;;;;;;5054511;28;20044;-68
2022/03/24 09:52:18;;;;;;;27.77;15.00;;;;;;;;;;5054512;28;20048;-69
2022/03/24 09:55:23;;;;;;;25.75;16.35;;;;;;;;;;5053861;28;20067;-69
2022/03/24 09:58:27;;;;;;;25.23;16.83;;;;;;;;;;5054058;28;20040;-68
2022/03/24 10:01:31;;;;;;;26.08;16.17;;;;;;;;;;5053950;28;20163;-69
2022/03/24 10:04:55;;;;;;;25.90;15.48;;;;;;;;;;5054162;28;20056;-70
2022/03/24 10:08:04;;;;;;;31.05;16.45;;;;;;;;;;5053994;28;20044;-69
2022/03/24 10:11:09;;;;;;;31.13;17.30;;;;;;;;;;5054219;28;20044;-68
2022/03/24 10:14:22;;;;;;;22.80;16.55;;;;;;;;;;5053996;28;20056;-67
2022/03/24 10:17:27;;;;;;;24.55;16.10;;;;;;;;;;5053707;28;20064;-68
2022/03/24 10:20:32;;;;;;;31.00;15.90;;;;;;;;;;5053640;28;20052;-68
2022/03/24 10:23:43;;;;;;;27.05;15.20;;;;;;;;;;5053727;28;20044;-69
2022/03/24 10:26:48;;;;;;;;;;;;;;;;;;5053902;28;20064;-69
2022/03/24 10:29:54;;;;;;;27.00;15.00;;;;;;;;;;5053943;28;19943;-69
2022/03/24 10:32:59;;;;;;;21.10;14.07;;;;;;;;;;5053514;28;20063;-66
2022/03/24 10:36:10;;;;;;;24.02;14.02;;;;;;;;;;5052353;28;20511;-74
2022/03/24 10:39:14;;;;;;;;;;;;;;;;;;5053919;28;20052;-69
2022/03/24 10:42:19;;;;;;;26.58;17.67;;;;;;;;;;5053271;28;20312;-68
2022/03/24 10:45:24;;;;;;;33.58;21.52;;;;;;;;;;5053590;28;20468;-69
2022/03/24 10:48:28;;;;;;;35.97;23.15;;;;;;;;;;5053355;28;20056;-68
2022/03/24 10:51:33;;;;;;;34.25;22.30;;;;;;;;;;5053198;28;20044;-68
2022/03/24 10:54:46;;;;;;;33.25;22.35;;;;;;;;;;5052645;28;20044;-70
2022/03/24 10:57:51;;;;;;;29.58;20.15;;;;;;;;;;5052458;28;20044;-70
2022/03/24 11:00:58;;;;;;;39.25;20.67;;;;;;;;;;5052835;28;20047;-68
2022/03/24 11:04:02;;;;;;;30.48;20.17;;;;;;;;;;5053175;28;20055;-72
2022/03/24 11:07:06;;;;;;;35.65;21.73;;;;;;;;;;5053116;28;20047;-69
2022/03/24 11:10:15;;;;;;;36.08;21.98;;;;;;;;;;5052930;28;20044;-69
2022/03/24 11:13:30;;;;;;;26.85;19.67;;;;;;;;;;5052704;28;20051;-68
2022/03/24 11:16:35;;;;;;;32.55;21.00;;;;;;;;;;5051196;28;20123;-66
2022/03/24 11:19:39;;;;;;;30.00;20.23;;;;;;;;;;5052813;28;20044;-69
2022/03/24 11:22:51;;;;;;;27.98;19.27;;;;;;;;;;5052467;28;20048;-68
2022/03/24 11:25:57;;;;;;;30.00;19.05;;;;;;;;;;5052886;28;20508;-67
2022/03/24 11:29:02;;;;;;;23.95;16.35;;;;;;;;;;5052457;28;20040;-69
2022/03/24 11:32:06;;;;;;;27.45;18.98;;;;;;;;;;5052524;28;20413;-68
2022/03/24 11:35:11;;;;;;;34.25;18.70;;;;;;;;;;5052221;28;20048;-68
2022/03/24 11:38:16;;;;;;;23.27;17.77;;;;;;;;;;5052254;28;20044;-69
2022/03/24 11:41:23;;;;;;;28.63;18.08;;;;;;;;;;5052773;28;20045;-65
2022/03/24 11:44:37;;;;;;;23.77;17.67;;;;;;;;;;5051888;28;20056;-68
2022/03/24 11:47:52;;;;;;;26.88;17.30;;;;;;;;;;5051243;28;20048;-68
2022/03/24 11:50:56;;;;;;;25.08;16.35;;;;;;;;;;5052212;28;20088;-68
2022/03/24 11:54:02;;;;;;;26.67;17.60;;;;;;;;;;5051475;28;20040;-68
2022/03/24 11:57:22;;;;;;;28.45;18.23;;;;;;;;;;5052106;28;20607;-67
2022/03/24 12:00:26;;;;;;;24.70;16.13;;;;;;;;;;5052045;28;20495;-68
2022/03/24 12:03:43;;;;;;;24.90;15.85;;;;;;;;;;5052244;28;20048;-69
2022/03/24 12:06:53;;;;;;;26.95;17.63;;;;;;;;;;5051731;28;20040;-69
2022/03/24 12:10:01;;;;;;;22.90;16.20;;;;;;;;;;5051741;28;20048;-70
2022/03/24 12:13:22;;;;;;;26.63;16.77;;;;;;;;;;5051749;28;20048;-70
2022/03/24 12:16:27;;;;;;;22.33;14.10;;;;;;;;;;5051222;28;20060;-67
2022/03/24 12:19:35;;;;;;;21.30;15.20;;;;;;;;;;5051617;28;20048;-68
2022/03/24 12:22:43;;;;;;;36.03;16.75;;;;;;;;;;5051438;28;20056;-69
2022/03/24 12:26:07;;;;;;;48.03;16.77;;;;;;;;;;5051703;28;20056;-67
2022/03/24 12:29:12;;;;;;;26.45;16.05;;;;;;;;;;5051318;28;20044;-67
2022/03/24 12:32:28;;;;;;;24.50;16.80;;;;;;;;;;5051241;28;20048;-68
2022/03/24 12:35:40;;;;;;;25.45;16.92;;;;;;;;;;5050695;28;20059;-68
2022/03/24 12:38:46;;;;;;;26.88;15.43;;;;;;;;;;5051396;28;20043;-68
2022/03/24 12:42:08;;;;;;;22.85;14.57;;;;;;;;;;5050960;28;20048;-68
2022/03/24 12:45:27;;;;;;;21.38;14.40;;;;;;;;;;5051415;28;20043;-69
2022/03/24 12:48:39;;;;;;;19.73;15.13;;;;;;;;;;5051171;28;20048;-68
2022/03/24 12:52:02;;;;;;;29.48;15.02;;;;;;;;;;5051095;28;20048;-68
2022/03/24 12:55:20;;;;;;;27.15;14.57;;;;;;;;;;5051420;28;20044;-68
2022/03/24 12:58:24;;;;;;;24.35;14.13;;;;;;;;;;5050808;28;20511;-68
2022/03/24 13:01:28;;;;;;;20.35;12.05;;;;;;;;;;5050301;28;20393;-68
2022/03/24 13:04:33;;;;;;;35.85;14.18;;;;;;;;;;5051135;28;20044;-69
2022/03/24 13:07:38;;;;;;;26.08;13.95;;;;;;;;;;5050877;28;20503;-69
2022/03/24 13:10:51;;;;;;;20.83;13.50;;;;;;;;;;5050539;28;20056;-67
2022/03/24 13:13:56;;;;;;;18.95;11.57;;;;;;;;;;5050786;28;20060;-68
2022/03/24 13:17:01;;;;;;;23.63;12.85;;;;;;;;;;5049780;28;20056;-69
2022/03/24 13:20:05;;;;;;;17.30;11.90;;;;;;;;;;5050490;28;20120;-69
2022/03/24 13:23:11;;;;;;;22.88;11.80;;;;;;;;;;5050510;28;20116;-69
2022/03/24 13:26:20;;;;;;;21.73;12.90;;;;;;;;;;5049746;28;20044;-69
2022/03/24 13:29:35;;;;;;;18.67;12.73;;;;;;;;;;5050919;28;20385;-68
2022/03/24 13:32:41;;;;;;;26.05;13.02;;;;;;;;;;5049961;28;20044;-67
2022/03/24 13:35:49;;;;;;;25.60;11.90;;;;;;;;;;5050602;28;20052;-69
2022/03/24 13:38:53;;;;;;;22.25;13.23;;;;;;;;;;5050382;28;20063;-68
2022/03/24 13:41:57;;;;;;;22.35;11.73;;;;;;;;;;5049428;28;20496;-70
2022/03/24 13:45:03;;;;;;;19.05;12.45;;;;;;;;;;5050359;28;20044;-67
2022/03/24 13:48:07;;;;;;;19.95;11.57;;;;;;;;;;5050548;28;20064;-68
2022/03/24 13:51:13;;;;;;;21.92;11.93;;;;;;;;;;5049957;28;20044;-68
2022/03/24 13:54:21;;;;;;;19.75;10.25;;;;;;;;;;5050564;28;20048;-67
2022/03/24 13:57:25;;;;;;;17.10;10.25;;;;;;;;;;5050542;28;20063;-68
2022/03/24 14:00:39;;;;;;;23.42;11.98;;;;;;;;;;5049804;28;20052;-68
2022/03/24 14:03:44;;;;;;;18.05;10.65;;;;;;;;;;5050580;28;20056;-68
2022/03/24 14:07:08;;;;;;;27.77;11.57;;;;;;;;;;5050325;28;20040;-68
2022/03/24 14:10:12;;;;;;;25.00;10.40;;;;;;;;;;5049844;28;20044;-69
2022/03/24 14:13:18;;;;;;;19.90;10.95;;;;;;;;;;5052991;28;20389;-68
2022/03/24 14:16:22;;;;;;;24.52;11.23;;;;;;;;;;5053312;28;20310;-69
2022/03/24 14:19:27;;;;;;;25.33;11.30;;;;;;;;;;5053768;28;20048;-71
2022/03/24 14:22:45;;;;;;;12.90;9.38;;;;;;;;;;5053808;28;20052;-69
2022/03/24 14:25:50;;;;;;;18.45;11.40;;;;;;;;;;5054079;28;20490;-68
2022/03/24 14:28:54;;;;;;;17.98;10.93;;;;;;;;;;5053757;28;20047;-69
2022/03/24 14:32:15;;;;;;;17.77;10.98;;;;;;;;;;5053547;28;20036;-70
2022/03/24 14:35:21;;;;;;;21.08;10.63;;;;;;;;;;5053634;28;20052;-67
2022/03/24 14:38:25;;;;;;;14.38;10.10;;;;;;;;;;5053341;28;20068;-68
2022/03/24 14:41:30;;;;;;;23.05;11.50;;;;;;;;;;5053807;28;20040;-68
2022/03/24 14:44:34;;;;;;;20.20;10.73;;;;;;;;;;5053233;28;20051;-68
2022/03/24 14:47:38;;;;;;;18.20;10.93;;;;;;;;;;5053502;28;20389;-69
2022/03/24 14:50:42;;;;;;;23.40;13.57;;;;;;;;;;5053619;28;20052;-68
2022/03/24 14:53:47;;;;;;;18.52;10.90;;;;;;;;;;5052681;28;20488;-69
2022/03/24 14:56:52;;;;;;;29.25;13.32;;;;;;;;;;5053266;28;20055;-68
2022/03/24 14:59:57;;;;;;;22.17;12.25;;;;;;;;;;5053071;28;20044;-68
2022/03/24 15:03:01;;;;;;;17.38;11.98;;;;;;;;;;5052317;28;20484;-68
2022/03/24 15:06:06;;;;;;;17.38;11.65;;;;;;;;;;5052915;28;20051;-69
2022/03/24 15:09:10;;;;;;;30.33;13.77;;;;;;;;;;5052095;28;20060;-68
2022/03/24 15:12:15;;;;;;;30.70;12.88;;;;;;;;;;5052650;28;20048;-72
2022/03/24 15:18:44;;;;;;;23.40;12.25;;;;;;;;;;5052803;28;20056;-67
2022/03/24 15:21:48;;;;;;;20.35;11.55;;;;;;;;;;5052742;28;20039;-68
2022/03/24 15:24:52;;;;;;;22.02;11.90;;;;;;;;;;5052688;28;20047;-72
2022/03/24 15:27:57;;;;;;;19.75;10.93;;;;;;;;;;5052669;28;20047;-68
2022/03/24 15:31:01;;;;;;;31.67;12.43;;;;;;;;;;5052814;28;20523;-70
2022/03/24 15:34:06;;;;;;;20.67;11.13;;;;;;;;;;5052430;28;20048;-72
2022/03/24 15:37:10;;;;;;;18.45;11.20;;;;;;;;;;5052355;28;20051;-69
2022/03/24 15:40:15;;;;;;;18.92;11.55;;;;;;;;;;5052701;28;20056;-71
2022/03/24 15:43:19;;;;;;;18.05;11.20;;;;;;;;;;5052562;28;20056;-70
2022/03/24 15:46:24;;;;;;;20.05;11.68;;;;;;;;;;5052182;28;20048;-68
2022/03/24 15:49:28;;;;;;;18.45;11.52;;;;;;;;;;5051890;28;20048;-70
2022/03/24 15:52:33;;;;;;;19.42;11.23;;;;;;;;;;5052060;28;20052;-68
2022/03/24 15:55:37;;;;;;;40.78;13.98;;;;;;;;;;5051743;28;20040;-68
2022/03/24 15:58:41;;;;;;;21.95;11.90;;;;;;;;;;5051923;28;20056;-68
2022/03/24 16:01:46;;;;;;;17.33;10.38;;;;;;;;;;5051914;28;20488;-69
2022/03/24 16:04:51;;;;;;;23.35;11.98;;;;;;;;;;5051921;28;20069;-67
2022/03/24 16:07:55;;;;;;;37.00;13.55;;;;;;;;;;5051754;28;20048;-69
2022/03/24 16:10:59;;;;;;;35.58;13.35;;;;;;;;;;5051878;28;20064;-71
2022/03/24 16:14:04;;;;;;;22.38;12.45;;;;;;;;;;5051005;28;20056;-68
2022/03/24 16:17:08;;;;;;;22.13;12.55;;;;;;;;;;5051343;28;20236;-70
2022/03/24 16:20:13;;;;;;;27.52;11.32;;;;;;;;;;5050355;28;20063;-70
2022/03/24 16:23:17;;;;;;;24.80;12.07;;;;;;;;;;5050964;28;20507;-68
2022/03/24 16:26:21;;;;;;;24.65;12.10;;;;;;;;;;5051408;28;20048;-70
2022/03/24 16:29:26;;;;;;;31.92;12.38;;;;;;;;;;5051530;28;20043;-70
2022/03/24 16:32:30;;;;;;;46.15;14.80;;;;;;;;;;5051383;28;20392;-67
2022/03/24 16:35:34;;;;;;;97.60;17.98;;;;;;;;;;5050545;28;20056;-70
2022/03/24 16:38:39;;;;;;;207.90;24.35;;;;;;;;;;5050088;28;20040;-68
2022/03/24 16:41:43;;;;;;;132.73;20.60;;;;;;;;;;5050885;28;20198;-68
2022/03/24 16:44:48;;;;;;;70.18;16.70;;;;;;;;;;5050282;28;20044;-68
2022/03/24 16:47:52;;;;;;;25.63;13.48;;;;;;;;;;5050658;28;20039;-68
2022/03/24 16:50:57;;;;;;;25.77;13.48;;;;;;;;;;5050643;28;20040;-70
2022/03/24 16:54:01;;;;;;;24.92;12.75;;;;;;;;;;5052202;28;20068;-68
2022/03/24 16:57:05;;;;;;;122.43;21.33;;;;;;;;;;5050802;28;20408;-66
2022/03/24 17:00:10;;;;;;;58.53;15.23;;;;;;;;;;5050987;28;20044;-67
2022/03/24 17:03:15;;;;;;;86.28;16.65;;;;;;;;;;5050501;28;20295;-67
2022/03/24 17:06:20;;;;;;;38.05;14.73;;;;;;;;;;5050758;28;20043;-68
2022/03/24 17:09:24;;;;;;;32.10;14.75;;;;;;;;;;5051044;28;20056;-67
2022/03/24 17:12:28;;;;;;;28.20;15.40;;;;;;;;;;5049826;28;20044;-68
2022/03/24 17:15:33;;;;;;;32.88;16.00;;;;;;;;;;5050328;28;20056;-68
2022/03/24 17:18:37;;;;;;;30.60;17.90;;;;;;;;;;5050638;28;20059;-68
2022/03/24 17:21:43;;;;;;;32.10;16.35;;;;;;;;;;5050757;28;20048;-69
2022/03/24 17:24:47;;;;;;;39.20;18.63;;;;;;;;;;5050540;28;20404;-68
2022/03/24 17:27:51;;;;;;;35.78;18.50;;;;;;;;;;5050614;28;20044;-68
2022/03/24 17:30:55;;;;;;;38.72;17.45;;;;;;;;;;5050497;28;20044;-67
2022/03/24 17:34:02;;;;;;;49.45;20.00;;;;;;;;;;5050623;28;20147;-67
2022/03/24 17:37:07;;;;;;;51.83;21.05;;;;;;;;;;5050179;28;20071;-68
2022/03/24 17:40:12;;;;;;;37.35;19.73;;;;;;;;;;5050394;28;20040;-67
2022/03/24 17:43:16;;;;;;;32.53;19.98;;;;;;;;;;5050111;28;20052;-66
2022/03/24 17:46:20;;;;;;;35.90;19.27;;;;;;;;;;5051653;28;20107;-67
2022/03/24 17:49:26;;;;;;;41.75;21.05;;;;;;;;;;5054158;28;20048;-65
2022/03/24 17:52:30;;;;;;;45.50;21.77;;;;;;;;;;5053967;28;20044;-66
2022/03/24 17:55:36;;;;;;;46.92;23.90;;;;;;;;;;5053949;28;20052;-66
2022/03/24 17:58:42;;;;;;;43.75;23.75;;;;;;;;;;5054045;28;20099;-66
2022/03/24 18:01:46;;;;;;;35.95;23.67;;;;;;;;;;5054050;28;20059;-66
2022/03/24 18:04:50;;;;;;;37.80;23.92;;;;;;;;;;5053963;28;20048;-66